Terminal Aerodrome Forecast
Issued by NWS

Home | Current Version | Previous Version | Text Only | Print | Product List | Glossary On
Versions: 1 2 3 4 5 6 7 8 9 10 11 12 13 14 15 16 17 18 19 20 21
161
FTUS43 KDTX 230836 AAA
TAFDET
TAF AMD
KDET 230836Z 2309/2406 21010KT P6SM BKN022 OVC035
     FM231000 21008KT P6SM -SHRA BKN012 OVC022
      TEMPO 2310/2313 4SM -RA BR OVC008
     FM231300 22013KT 5SM -SHRA BKN012 OVC022
      TEMPO 2313/2316 2SM TSRA BKN010CB
     FM231600 26012KT P6SM SCT025 BKN100
     FM232000 30012KT P6SM BKN035
     FM240300 28006KT P6SM BKN120=

USA.gov is the U.S. government's official web portal to all federal, state and local government web resources and services.